Eefde, Netherlands
Current Conditions -  °F | °C
As of 5:25 PM on Saturday 22 Nov 2014 (Local Time) from EHDL Reporting Station
Overcast Overcast  
Wind Chill: 50°   Ceiling: 16000
Heat Index: 50°   Visibility: 6mi
Dew Point: 45°   Wind: 6mph
Humidity: 82%   Direction: 140°SE
Pressure: 30.03"   Gusts: NA
Location:  52.17°N, 6.23°E
Report Text: EHDL 221625Z AUTO 14005KT 9999 OVC160 10/07 Q1017 BLU
Loading
Personal Weather Stations






























Interactive Weather Map New forecast layout! Learn more

10-Day Weather Forecast

Advertisements
Track Severe Weather on mobile